Osceola, Wisconsin
Current Conditions -  °F | °C
As of 9:15 AM on Thursday 23 Oct 2014 (Local Time) from KOEO Reporting Station
Haze Haze  
Wind Chill: 50°   Ceiling: 400
Heat Index: 50°   Visibility: 5mi
Dew Point: 50°   Wind: 3mph
Humidity: 100%   Direction: 170°S
Pressure: 30.03"   Gusts: NA
Location:  45.32°N, 92.7°W
Report Text: KOEO 231415Z AUTO 17003KT 5SM BR OVC004 10/10 A3003 RMK AO2 T01010101
Loading
Personal Weather Stations






























Interactive Weather Map
Tropical Storm Tracking
New forecast layout! Learn more

10-Day Weather Forecast

Advertisements
Track Severe Weather on mobile